Terminal Aerodrome Forecast
Issued by NWS

Home | Current Version | Previous Version | Text Only | Print | Product List | Glossary On
Versions: 1 2 3 4 5 6 7 8 9 10 11 12 13 14 15
000
FTUS43 KDTX 221720
TAFPTK
TAF
KPTK 221720Z 2218/2318 15005KT P6SM FEW050 SCT250
     FM230600 VRB03KT 3SM BR FEW250
     FM230900 00000KT 1SM BR FEW002
     FM231300 VRB03KT 4SM BR SKC
     FM231500 08005KT P6SM FEW050=

USA.gov is the U.S. government's official web portal to all federal, state and local government web resources and services.